^^
Grace C. Lehan Memorial Weather Station Historical Data
Daily Summary for July 1, 2021 Units:  Both    English   Metric
Daily Weekly Monthly Yearly
  High: Low: Average:
Temperature: 62.4 °F /  16.9 °C 41.8 °F /  5.4 °C 51.4 °F /  10.8 °C
Dew Point: 39.9 °F /  4.4 °C 23 °F /  -5 °C 33.4 °F /  0.8 °C
Humidity: 76.2% 24.2% 52%
Wind Speed: 13mph /  20.9km/h - 4mph /  6.4km/h
Wind Gust: 32mph /  51.5km/h - -
Wind- - NW
Pressure: 29.83 in /  1010 hPa 29.54 in /  1000.2 hPa -
Precipitation: 0.01 in /  0.25 mm    
 
 
Tabular Data for July 1, 2021
Time Temperature Dew Point Pressure Wind Wind Speed Wind Gust Humidity Rainfall Rate (Hourly) solar
00:00 47.7 °F /  8.7 °C 34.5 °F /  1.4 °C 29.54in /  1000.2hPa North 12mph /  19.3km/h 28mph /  45.1km/h 60% 0.00in /  0mm 0 W/m2
00:09 47.3 °F /  8.5 °C 35 °F /  1.7 °C 29.55in /  1000.6hPa NW 8.5mph /  13.7km/h 21mph /  33.8km/h 62.3% 0.00in /  0mm 0 W/m2
00:14 47 °F /  8.3 °C 35.9 °F /  2.2 °C 29.55in /  1000.6hPa WNW 3.9mph /  6.3km/h 21mph /  33.8km/h 65.1% 0.00in /  0mm 0 W/m2
00:19 46.6 °F /  8.1 °C 36.3 °F /  2.4 °C 29.55in /  1000.6hPa WNW 7.2mph /  11.6km/h 21mph /  33.8km/h 67.1% 0.00in /  0mm 0 W/m2
00:24 46.2 °F /  7.9 °C 36.8 °F /  2.7 °C 29.56in /  1000.9hPa WNW 3.6mph /  5.8km/h 21mph /  33.8km/h 69.6% 0.00in /  0mm 0 W/m2
00:29 45.9 °F /  7.7 °C 37.5 °F /  3.1 °C 29.56in /  1000.9hPa NW 5mph /  8km/h 21mph /  33.8km/h 72.4% 0.01in /  0.25mm 0 W/m2
00:34 45.4 °F /  7.4 °C 37.9 °F /  3.3 °C 29.56in /  1000.9hPa WNW 5.4mph /  8.7km/h 21mph /  33.8km/h 74.8% 0.01in /  0.25mm 0 W/m2
00:39 44.9 °F /  7.2 °C 37.7 °F /  3.2 °C 29.56in /  1000.9hPa WNW 4.8mph /  7.7km/h 16mph /  25.7km/h 75.7% 0.01in /  0.25mm 0 W/m2
00:44 44.5 °F /  6.9 °C 37.5 °F /  3.1 °C 29.56in /  1000.9hPa WNW 6.1mph /  9.8km/h 16mph /  25.7km/h 76.2% 0.01in /  0.25mm 0 W/m2
00:49 44.1 °F /  6.7 °C 36.6 °F /  2.6 °C 29.56in /  1000.9hPa WNW 10.3mph /  16.6km/h 31mph /  49.9km/h 74.6% 0.01in /  0.25mm 0 W/m2
00:54 44 °F /  6.7 °C 36 °F /  2.2 °C 29.57in /  1001.2hPa WNW 9.2mph /  14.8km/h 31mph /  49.9km/h 73.2% 0.01in /  0.25mm 0 W/m2
00:59 43.9 °F /  6.6 °C 35.3 °F /  1.8 °C 29.57in /  1001.2hPa WNW 11.1mph /  17.9km/h 31mph /  49.9km/h 71.4% 0.01in /  0.25mm 0 W/m2
01:04 43.9 °F /  6.6 °C 34.8 °F /  1.6 °C 29.57in /  1001.2hPa WNW 11.2mph /  18km/h 31mph /  49.9km/h 70.2% 0.01in /  0.25mm 0 W/m2
01:09 43.8 °F /  6.6 °C 34.6 °F /  1.4 °C 29.57in /  1001.2hPa WNW 8.3mph /  13.4km/h 24mph /  38.6km/h 69.8% 0.00in /  0mm 0 W/m2
01:14 43.8 °F /  6.6 °C 34.2 °F /  1.2 °C 29.57in /  1001.2hPa WNW 11.1mph /  17.9km/h 24mph /  38.6km/h 68.8% 0.00in /  0mm 0 W/m2
01:19 43.8 °F /  6.6 °C 34 °F /  1.1 °C 29.57in /  1001.2hPa WNW 8.3mph /  13.4km/h 24mph /  38.6km/h 68.1% 0.00in /  0mm 0 W/m2
01:24 43.8 °F /  6.6 °C 34 °F /  1.1 °C 29.57in /  1001.2hPa NW 9.4mph /  15.1km/h 24mph /  38.6km/h 68% 0.00in /  0mm 0 W/m2
01:29 43.8 °F /  6.6 °C 33.6 °F /  0.9 °C 29.57in /  1001.2hPa WNW 9.9mph /  15.9km/h 30mph /  48.3km/h 67.1% 0.00in /  0mm 0 W/m2
01:34 43.7 °F /  6.5 °C 33.3 °F /  0.7 °C 29.57in /  1001.2hPa WNW 12.9mph /  20.8km/h 32mph /  51.5km/h 66.5% 0.00in /  0mm 0 W/m2
01:39 43.7 °F /  6.5 °C 33.2 °F /  0.7 °C 29.57in /  1001.2hPa WNW 6.8mph /  10.9km/h 32mph /  51.5km/h 66.2% 0.00in /  0mm 0 W/m2
01:44 43.6 °F /  6.4 °C 33.2 °F /  0.7 °C 29.58in /  1001.6hPa NW 7.1mph /  11.4km/h 32mph /  51.5km/h 66.5% 0.00in /  0mm 0 W/m2
01:49 43.6 °F /  6.4 °C 33 °F /  0.6 °C 29.58in /  1001.6hPa NW 11.6mph /  18.7km/h 32mph /  51.5km/h 66% 0.00in /  0mm 0 W/m2
01:54 43.5 °F /  6.4 °C 32.6 °F /  0.3 °C 29.58in /  1001.6hPa NW 12.4mph /  20km/h 32mph /  51.5km/h 65.1% 0.00in /  0mm 0 W/m2
01:59 43.5 °F /  6.4 °C 32.5 °F /  0.3 °C 29.58in /  1001.6hPa WNW 12.9mph /  20.8km/h 32mph /  51.5km/h 65% 0.00in /  0mm 0 W/m2
02:04 43.4 °F /  6.3 °C 32.5 °F /  0.3 °C 29.58in /  1001.6hPa NW 9.8mph /  15.8km/h 32mph /  51.5km/h 65% 0.00in /  0mm 0 W/m2
02:09 43.4 °F /  6.3 °C 32.4 °F /  0.2 °C 29.58in /  1001.6hPa WNW 9.4mph /  15.1km/h 24mph /  38.6km/h 65% 0.00in /  0mm 0 W/m2
02:14 43.3 °F /  6.3 °C 32.3 °F /  0.2 °C 29.58in /  1001.6hPa NW 10mph /  16.1km/h 25mph /  40.2km/h 65% 0.00in /  0mm 0 W/m2
02:19 43.3 °F /  6.3 °C 32.3 °F /  0.2 °C 29.58in /  1001.6hPa WNW 7.4mph /  11.9km/h 25mph /  40.2km/h 65% 0.00in /  0mm 0 W/m2
02:24 43.2 °F /  6.2 °C 32.5 °F /  0.3 °C 29.58in /  1001.6hPa WNW 8mph /  12.9km/h 25mph /  40.2km/h 65.7% 0.00in /  0mm 0 W/m2
02:29 43.2 °F /  6.2 °C 32.6 °F /  0.3 °C 29.59in /  1001.9hPa WNW 6mph /  9.7km/h 25mph /  40.2km/h 66% 0.00in /  0mm 0 W/m2
02:34 43.1 °F /  6.2 °C 32.5 °F /  0.3 °C 29.59in /  1001.9hPa NW 5.4mph /  8.7km/h 25mph /  40.2km/h 66% 0.00in /  0mm 0 W/m2
02:39 43 °F /  6.1 °C 32.5 °F /  0.3 °C 29.59in /  1001.9hPa NW 3.9mph /  6.3km/h 15mph /  24.1km/h 66% 0.00in /  0mm 0 W/m2
02:44 43 °F /  6.1 °C 32.7 °F /  0.4 °C 29.59in /  1001.9hPa NW 6.4mph /  10.3km/h 15mph /  24.1km/h 66.7% 0.00in /  0mm 0 W/m2
02:49 42.9 °F /  6.1 °C 32.6 °F /  0.3 °C 29.59in /  1001.9hPa NW 9.3mph /  15km/h 19mph /  30.6km/h 66.8% 0.00in /  0mm 0 W/m2
02:54 42.8 °F /  6 °C 32.6 °F /  0.3 °C 29.59in /  1001.9hPa WNW 7.9mph /  12.7km/h 22mph /  35.4km/h 67% 0.00in /  0mm 0 W/m2
02:59 42.7 °F /  5.9 °C 32.7 °F /  0.4 °C 29.59in /  1001.9hPa NW 5mph /  8km/h 22mph /  35.4km/h 67.5% 0.00in /  0mm 0 W/m2
03:04 42.7 °F /  5.9 °C 32.8 °F /  0.4 °C 29.59in /  1001.9hPa NW 5.8mph /  9.3km/h 22mph /  35.4km/h 68% 0.00in /  0mm 0 W/m2
03:09 42.6 °F /  5.9 °C 32.8 °F /  0.4 °C 29.60in /  1002.3hPa NW 6.8mph /  10.9km/h 13mph /  20.9km/h 68% 0.00in /  0mm 0 W/m2
03:14 42.5 °F /  5.8 °C 32.7 °F /  0.4 °C 29.60in /  1002.3hPa WNW 5.5mph /  8.9km/h 15mph /  24.1km/h 68% 0.00in /  0mm 0 W/m2
03:19 42.5 °F /  5.8 °C 32.8 °F /  0.4 °C 29.61in /  1002.6hPa NW 5.6mph /  9km/h 15mph /  24.1km/h 68.4% 0.00in /  0mm 0 W/m2
03:24 42.5 °F /  5.8 °C 33.1 °F /  0.6 °C 29.61in /  1002.6hPa NW 4.5mph /  7.2km/h 15mph /  24.1km/h 69% 0.00in /  0mm 0 W/m2
03:29 42.5 °F /  5.8 °C 33 °F /  0.6 °C 29.61in /  1002.6hPa NW 4mph /  6.4km/h 15mph /  24.1km/h 69% 0.00in /  0mm 0 W/m2
03:34 42.4 °F /  5.8 °C 33 °F /  0.6 °C 29.61in /  1002.6hPa NW 7.9mph /  12.7km/h 17mph /  27.4km/h 69% 0.00in /  0mm 0 W/m2
03:39 42.4 °F /  5.8 °C 33 °F /  0.6 °C 29.61in /  1002.6hPa NW 5.3mph /  8.5km/h 17mph /  27.4km/h 69% 0.00in /  0mm 0 W/m2
03:44 42.4 °F /  5.8 °C 33 °F /  0.6 °C 29.62in /  1002.9hPa NW 7.3mph /  11.7km/h 17mph /  27.4km/h 69% 0.00in /  0mm 0 W/m2
03:49 42.4 °F /  5.8 °C 32.9 °F /  0.5 °C 29.62in /  1002.9hPa NNW 7.4mph /  11.9km/h 17mph /  27.4km/h 68.8% 0.00in /  0mm 0 W/m2
03:54 42.4 °F /  5.8 °C 32.8 °F /  0.4 °C 29.62in /  1002.9hPa NW 7mph /  11.3km/h 17mph /  27.4km/h 68.6% 0.00in /  0mm 0 W/m2
03:59 42.4 °F /  5.8 °C 32.6 °F /  0.3 °C 29.63in /  1003.3hPa NW 5.4mph /  8.7km/h 17mph /  27.4km/h 68% 0.00in /  0mm 0 W/m2
04:09 42.4 °F /  5.8 °C 32.6 °F /  0.3 °C 29.63in /  1003.3hPa WNW 4mph /  6.4km/h 10mph /  16.1km/h 68% 0.00in /  0mm 0 W/m2
04:14 42.3 °F /  5.7 °C 32.8 °F /  0.4 °C 29.64in /  1003.6hPa WNW 2.2mph /  3.5km/h 10mph /  16.1km/h 68.8% 0.00in /  0mm 0 W/m2
04:19 42.3 °F /  5.7 °C 32.5 °F /  0.3 °C 29.64in /  1003.6hPa NW 5.3mph /  8.5km/h 15mph /  24.1km/h 68% 0.00in /  0mm 0 W/m2
04:24 42.2 °F /  5.7 °C 32.4 °F /  0.2 °C 29.64in /  1003.6hPa NW 5.3mph /  8.5km/h 15mph /  24.1km/h 68% 0.00in /  0mm 0 W/m2
04:29 42.2 °F /  5.7 °C 32.4 °F /  0.2 °C 29.64in /  1003.6hPa NW 5.2mph /  8.4km/h 15mph /  24.1km/h 68% 0.00in /  0mm 0 W/m2
04:34 42.2 °F /  5.7 °C 32.4 °F /  0.2 °C 29.65in /  1003.9hPa NW 4.1mph /  6.6km/h 15mph /  24.1km/h 68% 0.00in /  0mm 0 W/m2
04:39 42.2 °F /  5.7 °C 32.4 °F /  0.2 °C 29.65in /  1003.9hPa NW 4.3mph /  6.9km/h 12mph /  19.3km/h 68% 0.00in /  0mm 0 W/m2
04:44 42.2 °F /  5.7 °C 32.4 °F /  0.2 °C 29.65in /  1003.9hPa NW 3.4mph /  5.5km/h 12mph /  19.3km/h 68% 0.00in /  0mm 0 W/m2
04:49 42.1 °F /  5.6 °C 32.3 °F /  0.2 °C 29.65in /  1003.9hPa NW 4.9mph /  7.9km/h 15mph /  24.1km/h 68% 0.00in /  0mm 0 W/m2
04:54 42.1 °F /  5.6 °C 32.3 °F /  0.2 °C 29.66in /  1004.3hPa WNW 5.8mph /  9.3km/h 15mph /  24.1km/h 68% 0.00in /  0mm 0 W/m2
04:59 42 °F /  5.6 °C 32.2 °F /  0.1 °C 29.66in /  1004.3hPa NW 4.6mph /  7.4km/h 15mph /  24.1km/h 68% 0.00in /  0mm 0 W/m2
05:04 42 °F /  5.6 °C 32.2 °F /  0.1 °C 29.66in /  1004.3hPa NW 6.5mph /  10.5km/h 20mph /  32.2km/h 68% 0.00in /  0mm 0 W/m2
05:09 42 °F /  5.6 °C 32.2 °F /  0.1 °C 29.67in /  1004.6hPa NW 7.1mph /  11.4km/h 20mph /  32.2km/h 68% 0.00in /  0mm 0 W/m2
05:14 42 °F /  5.6 °C 32.2 °F /  0.1 °C 29.67in /  1004.6hPa NW 6.7mph /  10.8km/h 20mph /  32.2km/h 68% 0.00in /  0mm 0 W/m2
05:19 42 °F /  5.6 °C 32.2 °F /  0.1 °C 29.68in /  1005hPa WNW 5.7mph /  9.2km/h 20mph /  32.2km/h 68% 0.00in /  0mm 0 W/m2
05:24 41.9 °F /  5.5 °C 32.2 °F /  0.1 °C 29.68in /  1005hPa NW 4.3mph /  6.9km/h 20mph /  32.2km/h 68% 0.00in /  0mm 0 W/m2
05:29 41.9 °F /  5.5 °C 32.1 °F /  0.1 °C 29.69in /  1005.3hPa NW 3.7mph /  6km/h 20mph /  32.2km/h 68% 0.00in /  0mm 0 W/m2
05:34 41.8 °F /  5.4 °C 32 °F /  0 °C 29.69in /  1005.3hPa NW 2.4mph /  3.9km/h 20mph /  32.2km/h 68% 0.00in /  0mm 0 W/m2
05:39 41.8 °F /  5.4 °C 32.2 °F /  0.1 °C 29.70in /  1005.6hPa NW 3.2mph /  5.1km/h 14mph /  22.5km/h 68.6% 0.00in /  0mm 0 W/m2
05:44 41.8 °F /  5.4 °C 32.3 °F /  0.2 °C 29.70in /  1005.6hPa NW 2.8mph /  4.5km/h 14mph /  22.5km/h 68.6% 0.00in /  0mm 0 W/m2
05:49 41.9 °F /  5.5 °C 32.2 °F /  0.1 °C 29.70in /  1005.6hPa NW 2.2mph /  3.5km/h 14mph /  22.5km/h 68.3% 0.00in /  0mm 0 W/m2
05:54 41.9 °F /  5.5 °C 32.4 °F /  0.2 °C 29.71in /  1006hPa NW 7.7mph /  12.4km/h 22mph /  35.4km/h 68.7% 0.00in /  0mm 5 W/m2
05:59 42 °F /  5.6 °C 32.2 °F /  0.1 °C 29.71in /  1006hPa NW 5mph /  8km/h 22mph /  35.4km/h 68% 0.00in /  0mm 7 W/m2
06:04 42.1 °F /  5.6 °C 32.3 °F /  0.2 °C 29.71in /  1006hPa NNW 2.9mph /  4.7km/h 22mph /  35.4km/h 68% 0.00in /  0mm 11 W/m2
06:09 42.1 °F /  5.6 °C 32.3 °F /  0.2 °C 29.71in /  1006hPa NW 4.2mph /  6.8km/h 15mph /  24.1km/h 68% 0.00in /  0mm 14 W/m2
06:14 42.1 °F /  5.6 °C 32.3 °F /  0.2 °C 29.72in /  1006.3hPa NW 1.3mph /  2.1km/h 15mph /  24.1km/h 68% 0.00in /  0mm 25 W/m2
06:19 42.1 °F /  5.6 °C 32.3 °F /  0.2 °C 29.72in /  1006.3hPa NW 2.1mph /  3.4km/h 15mph /  24.1km/h 68% 0.00in /  0mm 37 W/m2
06:24 42.1 °F /  5.6 °C 32.4 °F /  0.2 °C 29.72in /  1006.3hPa NW 2.7mph /  4.3km/h 15mph /  24.1km/h 68.2% 0.00in /  0mm 49 W/m2
06:29 42.2 °F /  5.7 °C 32.4 °F /  0.2 °C 29.73in /  1006.7hPa NW 2mph /  3.2km/h 15mph /  24.1km/h 68% 0.00in /  0mm 54 W/m2
06:34 42.3 °F /  5.7 °C 32.7 °F /  0.4 °C 29.73in /  1006.7hPa NW 1.3mph /  2.1km/h 15mph /  24.1km/h 68.6% 0.00in /  0mm 83 W/m2
06:39 42.4 °F /  5.8 °C 32.7 °F /  0.4 °C 29.74in /  1007hPa NW 3.7mph /  6km/h 17mph /  27.4km/h 68.2% 0.00in /  0mm 104 W/m2
06:44 42.6 °F /  5.9 °C 32.8 °F /  0.4 °C 29.74in /  1007hPa NW 4.3mph /  6.9km/h 19mph /  30.6km/h 68% 0.00in /  0mm 148 W/m2
06:49 43 °F /  6.1 °C 33 °F /  0.6 °C 29.74in /  1007hPa NNW 3.4mph /  5.5km/h 19mph /  30.6km/h 67.6% 0.00in /  0mm 213 W/m2
06:54 43.5 °F /  6.4 °C 33.3 °F /  0.7 °C 29.75in /  1007.3hPa NNW 1.8mph /  2.9km/h 19mph /  30.6km/h 67.2% 0.00in /  0mm 276 W/m2
06:59 44.2 °F /  6.8 °C 33.9 °F /  1.1 °C 29.75in /  1007.3hPa NW 1mph /  1.6km/h 19mph /  30.6km/h 66.8% 0.00in /  0mm 301 W/m2
07:04 45.2 °F /  7.3 °C 34.5 °F /  1.4 °C 29.75in /  1007.3hPa North 0.4mph /  0.6km/h 19mph /  30.6km/h 65.9% 0.00in /  0mm 287 W/m2
07:09 46 °F /  7.8 °C 34.6 °F /  1.4 °C 29.75in /  1007.3hPa WNW 1.8mph /  2.9km/h 9mph /  14.5km/h 64.1% 0.00in /  0mm 264 W/m2
07:14 46.7 °F /  8.2 °C 34.6 °F /  1.4 °C 29.75in /  1007.3hPa NW 1.9mph /  3.1km/h 12mph /  19.3km/h 62.5% 0.00in /  0mm 313 W/m2
07:19 47.3 °F /  8.5 °C 34.8 °F /  1.6 °C 29.76in /  1007.7hPa NW 3.1mph /  5km/h 13mph /  20.9km/h 61.7% 0.00in /  0mm 334 W/m2
07:24 47.8 °F /  8.8 °C 34.9 °F /  1.6 °C 29.76in /  1007.7hPa NW 1.3mph /  2.1km/h 13mph /  20.9km/h 60.8% 0.00in /  0mm 327 W/m2
07:29 48.2 °F /  9 °C 35.4 °F /  1.9 °C 29.76in /  1007.7hPa NNW 0.5mph /  0.8km/h 13mph /  20.9km/h 61.2% 0.00in /  0mm 359 W/m2
07:34 48.3 °F /  9.1 °C 35.1 °F /  1.7 °C 29.76in /  1007.7hPa WNW 4mph /  6.4km/h 14mph /  22.5km/h 60% 0.00in /  0mm 415 W/m2
07:39 48.3 °F /  9.1 °C 35 °F /  1.7 °C 29.76in /  1007.7hPa West 0.5mph /  0.8km/h 14mph /  22.5km/h 59.8% 0.00in /  0mm 425 W/m2
07:44 48.2 °F /  9 °C 34.8 °F /  1.6 °C 29.76in /  1007.7hPa WNW 0.5mph /  0.8km/h 14mph /  22.5km/h 59.4% 0.00in /  0mm 116 W/m2
07:49 47.7 °F /  8.7 °C 34.3 °F /  1.3 °C 29.77in /  1008hPa NW 4.2mph /  6.8km/h 14mph /  22.5km/h 59.5% 0.00in /  0mm 70 W/m2
07:54 46.9 °F /  8.3 °C 33.9 °F /  1.1 °C 29.77in /  1008hPa NNW 1.8mph /  2.9km/h 14mph /  22.5km/h 60.4% 0.00in /  0mm 83 W/m2
07:59 46.4 °F /  8 °C 34.4 °F /  1.3 °C 29.78in /  1008.4hPa NNW 1mph /  1.6km/h 14mph /  22.5km/h 62.7% 0.00in /  0mm 83 W/m2
08:00 46.3 °F /  7.9 °C 34.4 °F /  1.3 °C 29.77in /  1008hPa WNW 8mph /  12.9km/h 14mph /  22.5km/h 63% 0.00in /  0mm 54 W/m2
08:09 46.3 °F /  7.9 °C 34.7 °F /  1.5 °C 29.77in /  1008hPa WNW 2mph /  3.2km/h 9mph /  14.5km/h 63.7% 0.00in /  0mm 461 W/m2
08:14 46.9 °F /  8.3 °C 35.4 °F /  1.9 °C 29.77in /  1008hPa NW 1.2mph /  1.9km/h 9mph /  14.5km/h 64% 0.00in /  0mm 483 W/m2
08:19 47.8 °F /  8.8 °C 35.5 °F /  1.9 °C 29.77in /  1008hPa NW 4.5mph /  7.2km/h 13mph /  20.9km/h 62% 0.00in /  0mm 483 W/m2
08:24 48.6 °F /  9.2 °C 35.6 °F /  2 °C 29.77in /  1008hPa WNW 4.4mph /  7.1km/h 14mph /  22.5km/h 60.7% 0.00in /  0mm 515 W/m2
08:29 49.3 °F /  9.6 °C 36.4 °F /  2.4 °C 29.78in /  1008.4hPa NW 4.9mph /  7.9km/h 18mph /  29km/h 61% 0.00in /  0mm 529 W/m2
08:34 49.9 °F /  9.9 °C 36.2 °F /  2.3 °C 29.77in /  1008hPa NW 2.6mph /  4.2km/h 18mph /  29km/h 59.2% 0.00in /  0mm 527 W/m2
08:39 50.4 °F /  10.2 °C 36.5 °F /  2.5 °C 29.78in /  1008.4hPa NW 3.5mph /  5.6km/h 16mph /  25.7km/h 58.8% 0.00in /  0mm 541 W/m2
08:44 50.9 °F /  10.5 °C 37.1 °F /  2.8 °C 29.78in /  1008.4hPa NW 3.1mph /  5km/h 16mph /  25.7km/h 58.9% 0.00in /  0mm 557 W/m2
08:49 51.5 °F /  10.8 °C 37 °F /  2.8 °C 29.78in /  1008.4hPa WNW 5.2mph /  8.4km/h 16mph /  25.7km/h 57.5% 0.00in /  0mm 575 W/m2
08:54 51.3 °F /  10.7 °C 36 °F /  2.2 °C 29.78in /  1008.4hPa NW 8.3mph /  13.4km/h 20mph /  32.2km/h 55.6% 0.00in /  0mm 592 W/m2
08:59 50.9 °F /  10.5 °C 36.3 °F /  2.4 °C 29.79in /  1008.7hPa NW 5.4mph /  8.7km/h 20mph /  32.2km/h 57.2% 0.00in /  0mm 605 W/m2
09:04 50.9 °F /  10.5 °C 36.5 °F /  2.5 °C 29.79in /  1008.7hPa WNW 7.7mph /  12.4km/h 20mph /  32.2km/h 57.5% 0.00in /  0mm 622 W/m2
09:09 50.8 °F /  10.4 °C 36.4 °F /  2.4 °C 29.79in /  1008.7hPa NW 5.9mph /  9.5km/h 18mph /  29km/h 57.7% 0.00in /  0mm 642 W/m2
09:14 50.9 °F /  10.5 °C 36.4 °F /  2.4 °C 29.79in /  1008.7hPa WNW 8.1mph /  13km/h 19mph /  30.6km/h 57.3% 0.00in /  0mm 668 W/m2
09:19 51 °F /  10.6 °C 37.3 °F /  2.9 °C 29.79in /  1008.7hPa NW 6mph /  9.7km/h 19mph /  30.6km/h 59.2% 0.00in /  0mm 679 W/m2
09:24 51.4 °F /  10.8 °C 37 °F /  2.8 °C 29.79in /  1008.7hPa NW 4.9mph /  7.9km/h 19mph /  30.6km/h 57.6% 0.00in /  0mm 686 W/m2
09:29 51.7 °F /  10.9 °C 37.5 °F /  3.1 °C 29.79in /  1008.7hPa NW 2.3mph /  3.7km/h 19mph /  30.6km/h 58.1% 0.00in /  0mm 712 W/m2
09:34 52.2 °F /  11.2 °C 37.9 °F /  3.3 °C 29.79in /  1008.7hPa WNW 4.6mph /  7.4km/h 19mph /  30.6km/h 58.1% 0.00in /  0mm 773 W/m2
09:39 52.5 °F /  11.4 °C 37.8 °F /  3.2 °C 29.80in /  1009hPa WNW 3.5mph /  5.6km/h 17mph /  27.4km/h 57.1% 0.00in /  0mm 773 W/m2
09:44 52.3 °F /  11.3 °C 37.1 °F /  2.8 °C 29.80in /  1009hPa WNW 6mph /  9.7km/h 17mph /  27.4km/h 56% 0.00in /  0mm 828 W/m2
09:49 52 °F /  11.1 °C 37.1 °F /  2.8 °C 29.80in /  1009hPa WNW 4.7mph /  7.6km/h 17mph /  27.4km/h 56.6% 0.00in /  0mm 798 W/m2
09:54 52 °F /  11.1 °C 37.7 °F /  3.2 °C 29.81in /  1009.4hPa NW 6.7mph /  10.8km/h 19mph /  30.6km/h 58.1% 0.00in /  0mm 798 W/m2
09:59 52.4 °F /  11.3 °C 38.1 °F /  3.4 °C 29.81in /  1009.4hPa NW 5.4mph /  8.7km/h 19mph /  30.6km/h 57.9% 0.00in /  0mm 784 W/m2
10:04 53 °F /  11.7 °C 38.1 °F /  3.4 °C 29.81in /  1009.4hPa NW 6.3mph /  10.1km/h 19mph /  30.6km/h 56.8% 0.00in /  0mm 789 W/m2
10:09 53 °F /  11.7 °C 37.3 °F /  2.9 °C 29.81in /  1009.4hPa NW 8.5mph /  13.7km/h 19mph /  30.6km/h 55.2% 0.00in /  0mm 796 W/m2
10:14 52.7 °F /  11.5 °C 37.7 °F /  3.2 °C 29.81in /  1009.4hPa NW 6.4mph /  10.3km/h 19mph /  30.6km/h 56.4% 0.00in /  0mm 814 W/m2
10:19 52.9 °F /  11.6 °C 38.1 °F /  3.4 °C 29.81in /  1009.4hPa WNW 2.8mph /  4.5km/h 19mph /  30.6km/h 57.1% 0.00in /  0mm 823 W/m2
10:24 53.2 °F /  11.8 °C 37.8 °F /  3.2 °C 29.81in /  1009.4hPa WNW 7.2mph /  11.6km/h 19mph /  30.6km/h 55.8% 0.00in /  0mm 831 W/m2
10:29 53.1 °F /  11.7 °C 37.9 °F /  3.3 °C 29.81in /  1009.4hPa NW 6.4mph /  10.3km/h 19mph /  30.6km/h 56.2% 0.00in /  0mm 842 W/m2
10:34 53.2 °F /  11.8 °C 37.7 °F /  3.2 °C 29.81in /  1009.4hPa WNW 7.3mph /  11.7km/h 19mph /  30.6km/h 55.4% 0.00in /  0mm 854 W/m2
10:39 53.2 °F /  11.8 °C 38 °F /  3.3 °C 29.81in /  1009.4hPa WNW 4.7mph /  7.6km/h 17mph /  27.4km/h 56% 0.00in /  0mm 860 W/m2
10:44 53.5 °F /  11.9 °C 37.8 °F /  3.2 °C 29.82in /  1009.7hPa WNW 7.8mph /  12.6km/h 17mph /  27.4km/h 55.2% 0.00in /  0mm 868 W/m2
10:49 53.3 °F /  11.8 °C 37.4 °F /  3 °C 29.82in /  1009.7hPa WNW 7.4mph /  11.9km/h 17mph /  27.4km/h 54.6% 0.00in /  0mm 877 W/m2
10:54 53.5 °F /  11.9 °C 38.3 °F /  3.5 °C 29.82in /  1009.7hPa NW 3.9mph /  6.3km/h 17mph /  27.4km/h 56.2% 0.00in /  0mm 888 W/m2
10:59 54.1 °F /  12.3 °C 38 °F /  3.3 °C 29.82in /  1009.7hPa NW 9.1mph /  14.6km/h 19mph /  30.6km/h 54.3% 0.00in /  0mm 896 W/m2
11:04 54 °F /  12.2 °C 37.5 °F /  3.1 °C 29.82in /  1009.7hPa WNW 7mph /  11.3km/h 19mph /  30.6km/h 53.6% 0.00in /  0mm 904 W/m2
11:08 53.8 °F /  12.1 °C 38.3 °F /  3.5 °C 29.82in /  1009.7hPa NW 5.4mph /  8.7km/h 17mph /  27.4km/h 55.5% 0.00in /  0mm 911 W/m2
11:30 54.2 °F /  12.3 °C 37.5 °F /  3.1 °C 29.82in /  1009.7hPa NW 6mph /  9.7km/h 19mph /  30.6km/h 53% 0.00in /  0mm 920 W/m2
12:04 55.2 °F /  12.9 °C 37.6 °F /  3.1 °C 29.83in /  1010hPa NW 6.6mph /  10.6km/h 19mph /  30.6km/h 51.5% 0.00in /  0mm 974 W/m2
12:09 55.3 °F /  12.9 °C 38.3 °F /  3.5 °C 29.83in /  1010hPa WNW 2.6mph /  4.2km/h 12mph /  19.3km/h 52.6% 0.00in /  0mm 976 W/m2
12:14 55.5 °F /  13.1 °C 39.7 °F /  4.3 °C 29.83in /  1010hPa WNW 4.3mph /  6.9km/h 16mph /  25.7km/h 55.1% 0.00in /  0mm 979 W/m2
12:19 55.7 °F /  13.2 °C 38.5 °F /  3.6 °C 29.83in /  1010hPa West 3.2mph /  5.1km/h 16mph /  25.7km/h 52.4% 0.00in /  0mm 986 W/m2
12:24 55.5 °F /  13.1 °C 37.9 °F /  3.3 °C 29.83in /  1010hPa WNW 6.7mph /  10.8km/h 17mph /  27.4km/h 51.5% 0.00in /  0mm 986 W/m2
12:29 55 °F /  12.8 °C 38.1 °F /  3.4 °C 29.83in /  1010hPa NW 5.1mph /  8.2km/h 17mph /  27.4km/h 52.8% 0.00in /  0mm 990 W/m2
12:34 55 °F /  12.8 °C 38.5 °F /  3.6 °C 29.83in /  1010hPa NW 5.5mph /  8.9km/h 19mph /  30.6km/h 53.6% 0.00in /  0mm 993 W/m2
12:39 55.2 °F /  12.9 °C 38.7 °F /  3.7 °C 29.83in /  1010hPa NW 3.6mph /  5.8km/h 19mph /  30.6km/h 53.6% 0.00in /  0mm 995 W/m2
12:44 55.7 °F /  13.2 °C 38.7 °F /  3.7 °C 29.83in /  1010hPa WNW 4.8mph /  7.7km/h 19mph /  30.6km/h 52.7% 0.00in /  0mm 997 W/m2
12:49 55.8 °F /  13.2 °C 38.8 °F /  3.8 °C 29.83in /  1010hPa NW 4.6mph /  7.4km/h 19mph /  30.6km/h 52.7% 0.00in /  0mm 997 W/m2
12:54 56 °F /  13.3 °C 38.7 °F /  3.7 °C 29.83in /  1010hPa NW 2.8mph /  4.5km/h 19mph /  30.6km/h 52.2% 0.00in /  0mm 1000 W/m2
12:59 56.5 °F /  13.6 °C 39.9 °F /  4.4 °C 29.83in /  1010hPa NW 4.9mph /  7.9km/h 19mph /  30.6km/h 53.7% 0.00in /  0mm 1002 W/m2
13:04 57 °F /  13.9 °C 39 °F /  3.9 °C 29.83in /  1010hPa NW 7.6mph /  12.2km/h 19mph /  30.6km/h 50.9% 0.00in /  0mm 1004 W/m2
13:09 56.9 °F /  13.8 °C 38.8 °F /  3.8 °C 29.83in /  1010hPa NW 6.8mph /  10.9km/h 19mph /  30.6km/h 50.7% 0.00in /  0mm 1004 W/m2
13:14 56.9 °F /  13.8 °C 38.8 °F /  3.8 °C 29.83in /  1010hPa NW 4.4mph /  7.1km/h 19mph /  30.6km/h 50.7% 0.00in /  0mm 1000 W/m2
13:19 57 °F /  13.9 °C 39.1 °F /  3.9 °C 29.83in /  1010hPa WNW 5.9mph /  9.5km/h 19mph /  30.6km/h 51.1% 0.00in /  0mm 1000 W/m2
13:24 57.2 °F /  14 °C 39.1 °F /  3.9 °C 29.83in /  1010hPa NW 5.4mph /  8.7km/h 19mph /  30.6km/h 50.6% 0.00in /  0mm 1002 W/m2
13:29 57.4 °F /  14.1 °C 38.8 °F /  3.8 °C 29.83in /  1010hPa WNW 6.8mph /  10.9km/h 22mph /  35.4km/h 49.6% 0.00in /  0mm 1002 W/m2
13:34 57.5 °F /  14.2 °C 38.7 °F /  3.7 °C 29.83in /  1010hPa WNW 5.8mph /  9.3km/h 22mph /  35.4km/h 49.5% 0.00in /  0mm 997 W/m2
13:39 57.6 °F /  14.2 °C 39 °F /  3.9 °C 29.83in /  1010hPa NW 7.6mph /  12.2km/h 18mph /  29km/h 49.8% 0.00in /  0mm 993 W/m2
13:44 57.6 °F /  14.2 °C 38.7 °F /  3.7 °C 29.83in /  1010hPa NW 6.3mph /  10.1km/h 18mph /  29km/h 49.1% 0.00in /  0mm 988 W/m2
13:49 57.8 °F /  14.3 °C 39.3 °F /  4.1 °C 29.83in /  1010hPa NW 5.8mph /  9.3km/h 19mph /  30.6km/h 50% 0.00in /  0mm 986 W/m2
13:54 58 °F /  14.4 °C 38.9 °F /  3.8 °C 29.83in /  1010hPa WNW 3.9mph /  6.3km/h 19mph /  30.6km/h 48.8% 0.00in /  0mm 981 W/m2
13:59 58.3 °F /  14.6 °C 39.7 °F /  4.3 °C 29.83in /  1010hPa WNW 7.3mph /  11.7km/h 19mph /  30.6km/h 49.9% 0.00in /  0mm 976 W/m2
14:04 58.6 °F /  14.8 °C 39 °F /  3.9 °C 29.83in /  1010hPa NW 7.2mph /  11.6km/h 19mph /  30.6km/h 48% 0.00in /  0mm 970 W/m2
14:09 58.7 °F /  14.8 °C 39 °F /  3.9 °C 29.83in /  1010hPa NW 5.9mph /  9.5km/h 17mph /  27.4km/h 47.8% 0.00in /  0mm 963 W/m2
14:14 58.9 °F /  14.9 °C 39.4 °F /  4.1 °C 29.83in /  1010hPa NW 6mph /  9.7km/h 17mph /  27.4km/h 48.2% 0.00in /  0mm 960 W/m2
14:19 59.1 °F /  15.1 °C 38.6 °F /  3.7 °C 29.82in /  1009.7hPa WNW 5.5mph /  8.9km/h 17mph /  27.4km/h 46.5% 0.00in /  0mm 958 W/m2
14:24 59.1 °F /  15.1 °C 39.1 °F /  3.9 °C 29.82in /  1009.7hPa NW 4.2mph /  6.8km/h 17mph /  27.4km/h 47.3% 0.00in /  0mm 951 W/m2
14:29 59.3 °F /  15.2 °C 38.7 °F /  3.7 °C 29.83in /  1010hPa NW 10.1mph /  16.3km/h 20mph /  32.2km/h 46.3% 0.00in /  0mm 942 W/m2
14:34 59 °F /  15 °C 38.2 °F /  3.4 °C 29.83in /  1010hPa NW 8.3mph /  13.4km/h 20mph /  32.2km/h 45.8% 0.00in /  0mm 935 W/m2
14:39 59.2 °F /  15.1 °C 39 °F /  3.9 °C 29.83in /  1010hPa NW 4.8mph /  7.7km/h 18mph /  29km/h 47% 0.00in /  0mm 928 W/m2
14:44 59.6 °F /  15.3 °C 38 °F /  3.3 °C 29.83in /  1010hPa NW 6.8mph /  10.9km/h 18mph /  29km/h 44.6% 0.00in /  0mm 918 W/m2
14:49 59.8 °F /  15.4 °C 37.8 °F /  3.2 °C 29.83in /  1010hPa NW 9mph /  14.5km/h 19mph /  30.6km/h 44% 0.00in /  0mm 912 W/m2
14:54 59.7 °F /  15.4 °C 37.1 °F /  2.8 °C 29.83in /  1010hPa WNW 6.5mph /  10.5km/h 20mph /  32.2km/h 42.9% 0.00in /  0mm 907 W/m2
14:59 59.8 °F /  15.4 °C 36.8 °F /  2.7 °C 29.83in /  1010hPa WNW 5.9mph /  9.5km/h 21mph /  33.8km/h 42.2% 0.00in /  0mm 896 W/m2
15:04 60.1 °F /  15.6 °C 35.4 °F /  1.9 °C 29.83in /  1010hPa WNW 7.5mph /  12.1km/h 21mph /  33.8km/h 39.6% 0.00in /  0mm 888 W/m2
15:09 60.3 °F /  15.7 °C 35.2 °F /  1.8 °C 29.83in /  1010hPa NW 5.3mph /  8.5km/h 19mph /  30.6km/h 39% 0.00in /  0mm 874 W/m2
15:14 60.6 °F /  15.9 °C 35.3 °F /  1.8 °C 29.83in /  1010hPa NW 4mph /  6.4km/h 19mph /  30.6km/h 38.8% 0.00in /  0mm 858 W/m2
15:19 60.9 °F /  16.1 °C 35.5 °F /  1.9 °C 29.83in /  1010hPa NNW 4.6mph /  7.4km/h 19mph /  30.6km/h 38.5% 0.00in /  0mm 847 W/m2
15:24 61.4 °F /  16.3 °C 36.2 °F /  2.3 °C 29.82in /  1009.7hPa NW 4.2mph /  6.8km/h 19mph /  30.6km/h 39% 0.00in /  0mm 837 W/m2
15:29 61.7 °F /  16.5 °C 35.1 °F /  1.7 °C 29.83in /  1010hPa NW 3.1mph /  5km/h 19mph /  30.6km/h 37% 0.00in /  0mm 826 W/m2
15:34 61.9 °F /  16.6 °C 34.8 °F /  1.6 °C 29.82in /  1009.7hPa NNW 1.6mph /  2.6km/h 19mph /  30.6km/h 36.2% 0.00in /  0mm 812 W/m2
15:39 62.1 °F /  16.7 °C 35.7 °F /  2.1 °C 29.82in /  1009.7hPa NW 2.3mph /  3.7km/h 7mph /  11.3km/h 37.2% 0.00in /  0mm 802 W/m2
15:44 62.3 °F /  16.8 °C 35.9 °F /  2.2 °C 29.82in /  1009.7hPa WNW 3.2mph /  5.1km/h 10mph /  16.1km/h 37.3% 0.00in /  0mm 780 W/m2
15:49 62.4 °F /  16.9 °C 34.2 °F /  1.2 °C 29.82in /  1009.7hPa WNW 4.6mph /  7.4km/h 11mph /  17.7km/h 34.8% 0.00in /  0mm 777 W/m2
15:54 62.3 °F /  16.8 °C 32.9 °F /  0.5 °C 29.82in /  1009.7hPa WNW 5.9mph /  9.5km/h 17mph /  27.4km/h 33% 0.00in /  0mm 763 W/m2
15:59 62.3 °F /  16.8 °C 33 °F /  0.6 °C 29.82in /  1009.7hPa WNW 6.6mph /  10.6km/h 17mph /  27.4km/h 33.2% 0.00in /  0mm 749 W/m2
16:04 61.8 °F /  16.6 °C 33.2 °F /  0.7 °C 29.82in /  1009.7hPa West 13mph /  20.9km/h 13mph /  20.9km/h 34% 0.00in /  0mm 51 W/m2
16:09 61.7 °F /  16.5 °C 32.7 °F /  0.4 °C 29.82in /  1009.7hPa WNW 6.1mph /  9.8km/h 13mph /  20.9km/h 33.5% 0.00in /  0mm 51 W/m2
16:14 61.6 °F /  16.4 °C 33.2 °F /  0.7 °C 29.82in /  1009.7hPa WNW 3.2mph /  5.1km/h 13mph /  20.9km/h 34.3% 0.00in /  0mm 49 W/m2
16:19 61.4 °F /  16.3 °C 33.8 °F /  1 °C 29.82in /  1009.7hPa WNW 1.4mph /  2.3km/h 13mph /  20.9km/h 35.3% 0.00in /  0mm 49 W/m2
16:24 61.4 °F /  16.3 °C 33.5 °F /  0.8 °C 29.82in /  1009.7hPa West 2.7mph /  4.3km/h 13mph /  20.9km/h 34.9% 0.00in /  0mm 47 W/m2
16:29 61.4 °F /  16.3 °C 32.8 °F /  0.4 °C 29.82in /  1009.7hPa WNW 1.3mph /  2.1km/h 13mph /  20.9km/h 34% 0.00in /  0mm 46 W/m2
16:34 61.3 °F /  16.3 °C 32.3 °F /  0.2 °C 29.81in /  1009.4hPa NW 3.3mph /  5.3km/h 14mph /  22.5km/h 33.4% 0.00in /  0mm 46 W/m2
16:39 61.2 °F /  16.2 °C 28.7 °F /  -1.8 °C 29.81in /  1009.4hPa NW 6.1mph /  9.8km/h 14mph /  22.5km/h 29% 0.00in /  0mm 44 W/m2
16:44 61.2 °F /  16.2 °C 28.8 °F /  -1.8 °C 29.81in /  1009.4hPa WNW 2.1mph /  3.4km/h 14mph /  22.5km/h 29.1% 0.00in /  0mm 44 W/m2
16:49 61.4 °F /  16.3 °C 28.2 °F /  -2.1 °C 29.81in /  1009.4hPa NW 4.5mph /  7.2km/h 15mph /  24.1km/h 28.3% 0.00in /  0mm 44 W/m2
16:54 61.4 °F /  16.3 °C 27.9 °F /  -2.3 °C 29.81in /  1009.4hPa NW 3.7mph /  6km/h 15mph /  24.1km/h 27.9% 0.00in /  0mm 46 W/m2
16:59 61.2 °F /  16.2 °C 27.8 °F /  -2.3 °C 29.81in /  1009.4hPa NNW 2.4mph /  3.9km/h 15mph /  24.1km/h 28% 0.00in /  0mm 44 W/m2
17:04 61.1 °F /  16.2 °C 29.7 °F /  -1.3 °C 29.81in /  1009.4hPa NW 1.7mph /  2.7km/h 15mph /  24.1km/h 30.4% 0.00in /  0mm 44 W/m2
17:09 61.1 °F /  16.2 °C 29.9 °F /  -1.2 °C 29.81in /  1009.4hPa WNW 2.8mph /  4.5km/h 11mph /  17.7km/h 30.5% 0.00in /  0mm 70 W/m2
17:14 61.3 °F /  16.3 °C 28.7 °F /  -1.8 °C 29.81in /  1009.4hPa NW 5.4mph /  8.7km/h 15mph /  24.1km/h 28.9% 0.00in /  0mm 72 W/m2
17:19 61.4 °F /  16.3 °C 27.5 °F /  -2.5 °C 29.81in /  1009.4hPa WNW 4.9mph /  7.9km/h 15mph /  24.1km/h 27.5% 0.00in /  0mm 74 W/m2
17:24 61.3 °F /  16.3 °C 27.9 °F /  -2.3 °C 29.82in /  1009.7hPa WNW 3.8mph /  6.1km/h 15mph /  24.1km/h 28% 0.00in /  0mm 72 W/m2
17:29 61.3 °F /  16.3 °C 27.9 °F /  -2.3 °C 29.81in /  1009.4hPa WNW 3.5mph /  5.6km/h 15mph /  24.1km/h 27.9% 0.00in /  0mm 76 W/m2
17:34 61.2 °F /  16.2 °C 27.8 °F /  -2.3 °C 29.82in /  1009.7hPa WNW 1mph /  1.6km/h 15mph /  24.1km/h 27.9% 0.00in /  0mm 81 W/m2
17:39 61.1 °F /  16.2 °C 27.8 °F /  -2.3 °C 29.81in /  1009.4hPa WNW 1.9mph /  3.1km/h 10mph /  16.1km/h 28% 0.00in /  0mm 76 W/m2
17:44 61 °F /  16.1 °C 27.2 °F /  -2.7 °C 29.81in /  1009.4hPa NW 3.3mph /  5.3km/h 11mph /  17.7km/h 27.4% 0.00in /  0mm 65 W/m2
17:49 60.8 °F /  16 °C 26 °F /  -3.3 °C 29.81in /  1009.4hPa WNW 2.3mph /  3.7km/h 12mph /  19.3km/h 26.3% 0.00in /  0mm 65 W/m2
17:54 60.8 °F /  16 °C 26.6 °F /  -3 °C 29.81in /  1009.4hPa West 3.9mph /  6.3km/h 14mph /  22.5km/h 27% 0.00in /  0mm 47 W/m2
17:59 60.8 °F /  16 °C 26.6 °F /  -3 °C 29.81in /  1009.4hPa WNW 0.7mph /  1.1km/h 14mph /  22.5km/h 27% 0.00in /  0mm 44 W/m2
18:04 60.8 °F /  16 °C 27.2 °F /  -2.7 °C 29.81in /  1009.4hPa WNW 1.4mph /  2.3km/h 14mph /  22.5km/h 27.7% 0.00in /  0mm 40 W/m2
18:09 60.6 °F /  15.9 °C 25.2 °F /  -3.8 °C 29.81in /  1009.4hPa WNW 4.7mph /  7.6km/h 14mph /  22.5km/h 25.7% 0.00in /  0mm 53 W/m2
18:14 60.1 °F /  15.6 °C 23.4 °F /  -4.8 °C 29.81in /  1009.4hPa WNW 4.6mph /  7.4km/h 14mph /  22.5km/h 24.2% 0.00in /  0mm 53 W/m2
18:19 59.7 °F /  15.4 °C 23 °F /  -5 °C 29.81in /  1009.4hPa NNW 3.3mph /  5.3km/h 14mph /  22.5km/h 24.2% 0.00in /  0mm 42 W/m2
18:24 59.3 °F /  15.2 °C 23.3 °F /  -4.8 °C 29.81in /  1009.4hPa NW 1.3mph /  2.1km/h 14mph /  22.5km/h 24.7% 0.00in /  0mm 47 W/m2
18:29 59.1 °F /  15.1 °C 23.8 °F /  -4.6 °C 29.81in /  1009.4hPa NW 0.4mph /  0.6km/h 14mph /  22.5km/h 25.5% 0.00in /  0mm 62 W/m2
18:34 58.9 °F /  14.9 °C 24.2 °F /  -4.3 °C 29.81in /  1009.4hPa NW 0.2mph /  0.3km/h 14mph /  22.5km/h 26.2% 0.00in /  0mm 69 W/m2
18:39 58.7 °F /  14.8 °C 25.2 °F /  -3.8 °C 29.80in /  1009hPa North 0.6mph /  1km/h 3mph /  4.8km/h 27.4% 0.00in /  0mm 70 W/m2
18:44 58.6 °F /  14.8 °C 25.1 °F /  -3.8 °C 29.81in /  1009.4hPa North 0.6mph /  1km/h 4mph /  6.4km/h 27.4% 0.00in /  0mm 74 W/m2
18:49 58.6 °F /  14.8 °C 25.3 °F /  -3.7 °C 29.81in /  1009.4hPa North 0.4mph /  0.6km/h 4mph /  6.4km/h 27.7% 0.00in /  0mm 65 W/m2
18:54 58.7 °F /  14.8 °C 26.1 °F /  -3.3 °C 29.81in /  1009.4hPa North 0.4mph /  0.6km/h 4mph /  6.4km/h 28.5% 0.00in /  0mm 56 W/m2
18:59 58.7 °F /  14.8 °C 25.8 °F /  -3.4 °C 29.80in /  1009hPa North 0.3mph /  0.5km/h 4mph /  6.4km/h 28% 0.00in /  0mm 51 W/m2
19:04 58.8 °F /  14.9 °C 25.4 °F /  -3.7 °C 29.80in /  1009hPa Calm   4mph /  6.4km/h 27.5% 0.00in /  0mm 37 W/m2
19:09 58.9 °F /  14.9 °C 26.6 °F /  -3 °C 29.81in /  1009.4hPa NNW 0.3mph /  0.5km/h 3mph /  4.8km/h 28.8% 0.00in /  0mm 30 W/m2
19:14 58.9 °F /  14.9 °C 26.3 °F /  -3.2 °C 29.81in /  1009.4hPa NNW 0.3mph /  0.5km/h 3mph /  4.8km/h 28.6% 0.00in /  0mm 21 W/m2
19:19 58.8 °F /  14.9 °C 26.4 °F /  -3.1 °C 29.81in /  1009.4hPa Calm   3mph /  4.8km/h 28.7% 0.00in /  0mm 19 W/m2
19:24 58.7 °F /  14.8 °C 27.3 °F /  -2.6 °C 29.81in /  1009.4hPa Calm   3mph /  4.8km/h 29.9% 0.00in /  0mm 18 W/m2
19:29 58.6 °F /  14.8 °C 28.3 °F /  -2.1 °C 29.81in /  1009.4hPa NNW 0.1mph /  0.2km/h 3mph /  4.8km/h 31.2% 0.00in /  0mm 14 W/m2
19:34 58.5 °F /  14.7 °C 27.4 °F /  -2.6 °C 29.81in /  1009.4hPa Calm   3mph /  4.8km/h 30.3% 0.00in /  0mm 12 W/m2
19:39 58.3 °F /  14.6 °C 28 °F /  -2.2 °C 29.81in /  1009.4hPa Calm   1mph /  1.6km/h 31.3% 0.00in /  0mm 7 W/m2
19:44 58.1 °F /  14.5 °C 28.4 °F /  -2 °C 29.81in /  1009.4hPa Calm   1mph /  1.6km/h 32% 0.00in /  0mm 5 W/m2
19:49 57.8 °F /  14.3 °C 28.6 °F /  -1.9 °C 29.81in /  1009.4hPa Calm   1mph /  1.6km/h 32.5% 0.00in /  0mm 0 W/m2
19:54 57.5 °F /  14.2 °C 28.7 °F /  -1.8 °C 29.80in /  1009hPa Calm   1mph /  1.6km/h 33.1% 0.00in /  0mm 0 W/m2
19:59 57.1 °F /  13.9 °C 27.1 °F /  -2.7 °C 29.80in /  1009hPa Calm   1mph /  1.6km/h 31.4% 0.00in /  0mm 0 W/m2
20:00 56.9 °F /  13.8 °C 26.6 °F /  -3 °C 29.80in /  1009hPa Calm   1mph /  1.6km/h 31% 0.00in /  0mm 0 W/m2
20:09 56.4 °F /  13.6 °C 27.3 °F /  -2.6 °C 29.80in /  1009hPa Calm     32.5% 0.00in /  0mm 0 W/m2
20:14 56.1 °F /  13.4 °C 28.1 °F /  -2.2 °C 29.81in /  1009.4hPa Calm     34% 0.00in /  0mm 0 W/m2
20:19 55.7 °F /  13.2 °C 27.8 °F /  -2.3 °C 29.80in /  1009hPa Calm     34% 0.00in /  0mm 0 W/m2
20:24 55.4 °F /  13 °C 27.2 °F /  -2.7 °C 29.81in /  1009.4hPa Calm     33.6% 0.00in /  0mm 0 W/m2
20:29 55.1 °F /  12.8 °C 27.5 °F /  -2.5 °C 29.81in /  1009.4hPa Calm     34.4% 0.00in /  0mm 0 W/m2
20:34 54.7 °F /  12.6 °C 28.6 °F /  -1.9 °C 29.80in /  1009hPa Calm     36.4% 0.00in /  0mm 0 W/m2
20:39 54.4 °F /  12.4 °C 29.7 °F /  -1.3 °C 29.80in /  1009hPa Calm     38.7% 0.00in /  0mm 0 W/m2
20:44 54 °F /  12.2 °C 29.5 °F /  -1.4 °C 29.81in /  1009.4hPa Calm     38.9% 0.00in /  0mm 0 W/m2
20:49 53.5 °F /  11.9 °C 29.2 °F /  -1.6 °C 29.81in /  1009.4hPa Calm     39% 0.00in /  0mm 0 W/m2
20:54 53.1 °F /  11.7 °C 29.4 °F /  -1.4 °C 29.81in /  1009.4hPa Calm     39.9% 0.00in /  0mm 0 W/m2
20:59 52.8 °F /  11.6 °C 29.8 °F /  -1.2 °C 29.81in /  1009.4hPa Calm     41.1% 0.00in /  0mm 0 W/m2
21:04 52.5 °F /  11.4 °C 30 °F /  -1.1 °C 29.81in /  1009.4hPa Calm     41.8% 0.00in /  0mm 0 W/m2
21:09 52.3 °F /  11.3 °C 30.4 °F /  -0.9 °C 29.81in /  1009.4hPa Calm     42.8% 0.00in /  0mm 0 W/m2
21:14 52 °F /  11.1 °C 31.4 °F /  -0.3 °C 29.81in /  1009.4hPa Calm     45.1% 0.00in /  0mm 0 W/m2
21:19 51.6 °F /  10.9 °C 32.7 °F /  0.4 °C 29.81in /  1009.4hPa Calm     48.2% 0.00in /  0mm 0 W/m2
21:24 51.2 °F /  10.7 °C 32.7 °F /  0.4 °C 29.81in /  1009.4hPa Calm     48.9% 0.00in /  0mm 0 W/m2
21:29 51 °F /  10.6 °C 32 °F /  0 °C 29.81in /  1009.4hPa Calm     48.1% 0.00in /  0mm 0 W/m2
21:34 50.8 °F /  10.4 °C 30.8 °F /  -0.7 °C 29.81in /  1009.4hPa Calm     46.1% 0.00in /  0mm 0 W/m2
21:39 50.6 °F /  10.3 °C 30.6 °F /  -0.8 °C 29.81in /  1009.4hPa Calm     46% 0.00in /  0mm 0 W/m2
21:44 50.5 °F /  10.3 °C 30.2 °F /  -1 °C 29.81in /  1009.4hPa Calm     45.5% 0.00in /  0mm 0 W/m2
21:49 50.3 °F /  10.2 °C 30.8 °F /  -0.7 °C 29.81in /  1009.4hPa Calm     46.8% 0.00in /  0mm 0 W/m2
21:54 50.2 °F /  10.1 °C 31.5 °F /  -0.3 °C 29.81in /  1009.4hPa Calm     48.4% 0.00in /  0mm 0 W/m2
21:59 50 °F /  10 °C 31.3 °F /  -0.4 °C 29.81in /  1009.4hPa Calm     48.3% 0.00in /  0mm 0 W/m2
22:04 49.9 °F /  9.9 °C 31.8 °F /  -0.1 °C 29.81in /  1009.4hPa Calm     49.5% 0.00in /  0mm 0 W/m2
22:09 49.8 °F /  9.9 °C 31.9 °F /  -0.1 °C 29.81in /  1009.4hPa Calm     50.1% 0.00in /  0mm 0 W/m2
22:14 49.6 °F /  9.8 °C 31.9 °F /  -0.1 °C 29.81in /  1009.4hPa Calm     50.3% 0.00in /  0mm 0 W/m2
22:19 49.5 °F /  9.7 °C 32.5 °F /  0.3 °C 29.81in /  1009.4hPa Calm     51.8% 0.00in /  0mm 0 W/m2
22:24 49.3 °F /  9.6 °C 31.8 °F /  -0.1 °C 29.81in /  1009.4hPa Calm     50.6% 0.00in /  0mm 0 W/m2
22:29 49.2 °F /  9.6 °C 32.4 °F /  0.2 °C 29.80in /  1009hPa Calm     52.1% 0.00in /  0mm 0 W/m2
22:34 49.2 °F /  9.6 °C 32.6 °F /  0.3 °C 29.80in /  1009hPa Calm     52.5% 0.00in /  0mm 0 W/m2
22:39 49 °F /  9.4 °C 33.7 °F /  0.9 °C 29.80in /  1009hPa Calm     55.3% 0.00in /  0mm 0 W/m2
22:44 48.8 °F /  9.3 °C 33.8 °F /  1 °C 29.80in /  1009hPa Calm     56% 0.00in /  0mm 0 W/m2
22:49 48.7 °F /  9.3 °C 33.9 °F /  1.1 °C 29.80in /  1009hPa Calm     56.4% 0.00in /  0mm 0 W/m2
22:54 48.5 °F /  9.2 °C 33.8 °F /  1 °C 29.80in /  1009hPa Calm     56.7% 0.00in /  0mm 0 W/m2
22:59 48.3 °F /  9.1 °C 33.3 °F /  0.7 °C 29.80in /  1009hPa Calm     55.9% 0.00in /  0mm 0 W/m2
23:04 48.2 °F /  9 °C 33.1 °F /  0.6 °C 29.80in /  1009hPa Calm     55.6% 0.00in /  0mm 0 W/m2
23:09 48.3 °F /  9.1 °C 32.4 °F /  0.2 °C 29.80in /  1009hPa Calm     54% 0.00in /  0mm 0 W/m2
23:14 48.3 °F /  9.1 °C 32.6 °F /  0.3 °C 29.80in /  1009hPa Calm     54.4% 0.00in /  0mm 0 W/m2
23:19 48.3 °F /  9.1 °C 34 °F /  1.1 °C 29.80in /  1009hPa Calm     57.5% 0.00in /  0mm 0 W/m2
23:24 48.2 °F /  9 °C 34.8 °F /  1.6 °C 29.79in /  1008.7hPa Calm     59.5% 0.00in /  0mm 0 W/m2
23:29 48 °F /  8.9 °C 34.8 °F /  1.6 °C 29.79in /  1008.7hPa Calm     60% 0.00in /  0mm 0 W/m2
23:34 47.9 °F /  8.8 °C 34.7 °F /  1.5 °C 29.79in /  1008.7hPa Calm     60% 0.00in /  0mm 0 W/m2
23:39 47.9 °F /  8.8 °C 34.5 °F /  1.4 °C 29.79in /  1008.7hPa Calm     59.6% 0.00in /  0mm 0 W/m2
23:44 48.1 °F /  8.9 °C 34.8 °F /  1.6 °C 29.79in /  1008.7hPa Calm     59.9% 0.00in /  0mm 0 W/m2
23:49 48.3 °F /  9.1 °C 33.8 °F /  1 °C 29.79in /  1008.7hPa Calm     57.1% 0.00in /  0mm 0 W/m2
23:54 48.7 °F /  9.3 °C 33.3 °F /  0.7 °C 29.79in /  1008.7hPa Calm     55.1% 0.00in /  0mm 0 W/m2
23:59 49.1 °F /  9.5 °C 33.2 °F /  0.7 °C 29.78in /  1008.4hPa Calm     54.1% 0.00in /  0mm 0 W/m2
Hartford County Weather
Compliments of Weather Underground - 2 mb